»·PEaware :: AAL505 KPHX-KSLC

AAL505 :: KPHX-KSLC

FLIGHT INFORMATION

Flight Status: Arrived
Operator:
American Airlines
More flights by this operator :: More flights under this callsign
Pilot: Jeremy D. (22782)
Aircraft: BOEING 737-800
(B738)
More flights by this aircraft type
Origin: KPHX Phoenix Sky Harbor Intl
United States
Destination: KSLC Salt Lake City Intl
United States
More flights between these airports :: More routes between these airports
Route: +QUAKY1 GCN BCE MARNN QWENN5
File this flight plan on PilotEdge
Remarks: RMK / SIMBRIEF
Altitude:
(Current/Filed)
36,000ft
Speed:
(Current/Filed)
459kts
Departed: 18-Aug-19 06:37 PM
Arrived: 18-Aug-19 07:45 PM
Distance/Time
Traveled:
441nm/1:07
Distance/Time
To Go:
Arrived

Flight Plot

Page will automatically refresh every two minutes.


Map Options




Map Legend


Flown Route
Filed Route
Departure Airport
Arrival Airport
Navaid (VOR, NDB)
Fix

Horizontal Profiles

Position Reports

Time Latitude Longitude Heading Altitude Ground
Speed
18-Aug-19 18:17 33.437980 -112.002454 109 1141ft 0kts
18-Aug-19 18:18 33.437980 -112.002454 109 1141ft 0kts
18-Aug-19 18:19 33.437980 -112.002454 109 1141ft 0kts
18-Aug-19 18:20 33.437980 -112.002454 109 1141ft 0kts
18-Aug-19 18:21 33.437980 -112.002454 109 1141ft 0kts
18-Aug-19 18:22 33.437980 -112.002454 109 1141ft 0kts
18-Aug-19 18:23 33.437980 -112.002454 109 1141ft 0kts
18-Aug-19 18:24 33.437980 -112.002454 109 1141ft 0kts
18-Aug-19 18:25 33.437980 -112.002454 109 1141ft 0kts
18-Aug-19 18:26 33.437980 -112.002454 109 1141ft 0kts
18-Aug-19 18:27 33.438008 -112.002572 85 1142ft 2kts
18-Aug-19 18:28 33.437684 -112.002891 352 1142ft 0kts
18-Aug-19 18:29 33.437684 -112.002891 352 1141ft 0kts
18-Aug-19 18:30 33.437873 -112.002926 350 1141ft 2kts
18-Aug-19 18:31 33.439007 -112.004298 270 1141ft 11kts
18-Aug-19 18:32 33.439001 -112.010013 269 1141ft 18kts
18-Aug-19 18:33 33.439029 -112.016544 271 1141ft 21kts
18-Aug-19 18:34 33.439050 -112.023200 269 1141ft 19kts
18-Aug-19 18:35 33.439181 -112.029402 305 1141ft 16kts
18-Aug-19 18:36 33.440875 -112.019808 90 1142ft 122kts
18-Aug-19 18:37 33.440271 -111.960845 92 2722ft 199kts
18-Aug-19 18:38 33.435332 -111.880172 88 4367ft 273kts
18-Aug-19 18:39 33.494240 -111.838181 357 7079ft 295kts
18-Aug-19 18:40 33.578167 -111.838952 0 9094ft 303kts
18-Aug-19 18:41 33.663687 -111.839424 349 10520ft 322kts
18-Aug-19 18:42 33.757294 -111.860322 347 12671ft 350kts
18-Aug-19 18:43 33.854958 -111.882276 347 15161ft 363kts
18-Aug-19 18:44 33.955998 -111.905043 347 17528ft 376kts
18-Aug-19 18:45 34.060632 -111.928678 347 19755ft 388kts
18-Aug-19 18:46 34.170286 -111.944373 353 21755ft 403kts
18-Aug-19 18:47 34.283595 -111.956805 352 23530ft 416kts
18-Aug-19 18:48 34.399208 -111.969590 352 25211ft 427kts
18-Aug-19 18:49 34.518895 -111.982829 353 26768ft 438kts
18-Aug-19 18:50 34.641512 -111.996399 353 28236ft 448kts
18-Aug-19 18:51 34.766984 -112.010391 352 29603ft 457kts
18-Aug-19 18:52 34.895024 -112.024735 353 30964ft 464kts
18-Aug-19 18:53 35.022937 -112.039180 351 32637ft 459kts
18-Aug-19 18:54 35.149517 -112.053481 351 34156ft 454kts
18-Aug-19 18:55 35.274503 -112.067654 351 35457ft 450kts
18-Aug-19 18:56 35.399223 -112.081517 352 36266ft 456kts
18-Aug-19 18:57 35.527423 -112.094114 352 36265ft 462kts
18-Aug-19 18:58 35.655183 -112.109316 351 36257ft 462kts
18-Aug-19 18:59 35.783282 -112.124694 351 36257ft 461kts
18-Aug-19 19:00 35.910880 -112.140035 351 36257ft 461kts
18-Aug-19 19:01 36.038755 -112.153177 353 36256ft 462kts
18-Aug-19 19:02 36.167150 -112.164587 353 36251ft 462kts
18-Aug-19 19:03 36.295403 -112.176089 353 36255ft 463kts
18-Aug-19 19:04 36.423985 -112.187660 353 36255ft 462kts
18-Aug-19 19:05 36.552154 -112.199270 353 36207ft 462kts
18-Aug-19 19:06 36.680641 -112.210919 352 36108ft 460kts
18-Aug-19 19:07 36.808443 -112.222550 352 36111ft 462kts
18-Aug-19 19:08 36.936966 -112.234300 353 36111ft 462kts
18-Aug-19 19:09 37.065093 -112.246031 352 36110ft 459kts
18-Aug-19 19:10 37.191206 -112.257634 352 36124ft 456kts
18-Aug-19 19:11 37.317991 -112.269333 352 36168ft 456kts
18-Aug-19 19:12 37.440239 -112.280653 352 36282ft 456kts
18-Aug-19 19:13 37.566993 -112.292425 351 36300ft 456kts
18-Aug-19 19:14 37.693116 -112.304189 351 36300ft 456kts
18-Aug-19 19:15 37.819777 -112.319899 350 36301ft 455kts
18-Aug-19 19:16 37.945995 -112.335448 350 36301ft 456kts
18-Aug-19 19:17 38.072153 -112.350921 350 36302ft 455kts
18-Aug-19 19:18 38.198919 -112.366616 350 36271ft 456kts
18-Aug-19 19:19 38.325735 -112.382352 350 36168ft 455kts
18-Aug-19 19:20 38.451592 -112.398120 351 36072ft 455kts
18-Aug-19 19:21 38.577824 -112.413809 350 36070ft 456kts
18-Aug-19 19:22 38.702071 -112.426435 5 34553ft 449kts
18-Aug-19 19:24 38.819385 -112.362780 23 31559ft 464kts
18-Aug-19 19:25 38.936597 -112.289430 23 28325ft 472kts
18-Aug-19 19:26 39.051468 -112.217391 23 25720ft 463kts
18-Aug-19 19:27 39.165918 -112.145087 23 24029ft 452kts
18-Aug-19 19:28 39.280861 -112.085566 7 24030ft 441kts
18-Aug-19 19:29 39.403265 -112.066055 2 24026ft 439kts
18-Aug-19 19:30 39.525222 -112.049040 2 24027ft 439kts
18-Aug-19 19:31 39.646449 -112.032023 2 24025ft 439kts
18-Aug-19 19:32 39.767172 -112.014998 3 22441ft 429kts
18-Aug-19 19:33 39.883955 -111.998487 3 20208ft 413kts
18-Aug-19 19:34 39.994919 -111.982746 3 17396ft 393kts
18-Aug-19 19:35 40.099225 -111.967881 4 14905ft 369kts
18-Aug-19 19:36 40.200642 -111.953448 4 12443ft 369kts
18-Aug-19 19:37 40.299614 -111.937926 3 11038ft 357kts
18-Aug-19 19:38 40.398827 -111.929953 354 10875ft 342kts
18-Aug-19 19:39 40.491078 -111.941356 353 9271ft 306kts
18-Aug-19 19:40 40.563196 -111.948633 353 8060ft 257kts
18-Aug-19 19:41 40.629137 -111.956266 353 6935ft 210kts
18-Aug-19 19:41 40.673908 -111.961454 353 6239ft 185kts
18-Aug-19 19:43 40.724093 -111.967753 353 5163ft 156kts
18-Aug-19 19:44 40.766610 -111.972266 354 4475ft 152kts
18-Aug-19 19:44 40.793653 -111.975392 349 4234ft 32kts
18-Aug-19 19:46 40.795532 -111.977142 262 4234ft 9kts
18-Aug-19 19:46 40.792673 -111.977009 178 4234ft 15kts
18-Aug-19 19:47 40.789158 -111.977977 223 4234ft 0kts

Navigation Log

Ident Type
Flight plan parsing failed, navigation log unavailable